»·PEaware :: N9092T KASE-KSLC

N9092T :: KASE-KSLC

FLIGHT INFORMATION

Flight Status: Arrived
Operator: Privately registered:
United States
More flights under this callsign
Pilot: Jone M. (10385)
Aircraft: BEECH AIRCRAFT BONANZA
(BE36)
More flights by this aircraft type
Origin: KASE Aspen-Pitkin Co/Sardy
United States
Destination: KSLC Salt Lake City Intl
United States
More flights between these airports :: More routes between these airports
Route: +LINDZ9 EKR V200 FFU V21 TCH
File this flight plan on PilotEdge
Remarks: ***FRC***
Altitude:
(Current/Filed)
16,000ft
Speed:
(Current/Filed)
160kts
Departed: 27-Feb-19 02:40 PM
Arrived: 27-Feb-19 04:58 PM
Distance/Time
Traveled:
252nm/2:18
Distance/Time
To Go:
Arrived

Flight Plot

Page will automatically refresh every two minutes.

Flight plan parsing failed; only flown route is shown


Map Options




Map Legend


Flown Route
Filed Route
Departure Airport
Arrival Airport
Navaid (VOR, NDB)
Fix

Horizontal Profiles

Position Reports

Time Latitude Longitude Heading Altitude Ground
Speed
27-Feb-19 14:11 39.226874 -106.868978 69 7705ft 0kts
27-Feb-19 14:12 39.226874 -106.868977 69 7705ft 0kts
27-Feb-19 14:13 39.226874 -106.868978 69 7705ft 0kts
27-Feb-19 14:14 39.226874 -106.868978 69 7705ft 0kts
27-Feb-19 14:15 39.226874 -106.868978 69 7705ft 0kts
27-Feb-19 14:16 39.226874 -106.868978 69 7705ft 0kts
27-Feb-19 14:17 39.226874 -106.868978 69 7705ft 0kts
27-Feb-19 14:18 39.226874 -106.868978 69 7705ft 0kts
27-Feb-19 14:19 39.226874 -106.868978 69 7705ft 0kts
27-Feb-19 14:20 39.226874 -106.868978 69 7705ft 0kts
27-Feb-19 14:21 39.226874 -106.868978 69 7705ft 0kts
27-Feb-19 14:22 39.226874 -106.868978 69 7705ft 0kts
27-Feb-19 14:23 39.226874 -106.868978 69 7705ft 0kts
27-Feb-19 14:24 39.226874 -106.868978 69 7705ft 0kts
27-Feb-19 14:25 39.226874 -106.868978 69 7705ft 0kts
27-Feb-19 14:26 39.226874 -106.868978 69 7705ft 0kts
27-Feb-19 14:27 39.226874 -106.868978 69 7705ft 0kts
27-Feb-19 14:28 39.226874 -106.868978 69 7705ft 0kts
27-Feb-19 14:29 39.226874 -106.868978 69 7705ft 0kts
27-Feb-19 14:30 39.226815 -106.868940 242 7706ft 1kts
27-Feb-19 14:31 39.225708 -106.868858 159 7714ft 7kts
27-Feb-19 14:32 39.223147 -106.867630 158 7738ft 9kts
27-Feb-19 14:33 39.220939 -106.866572 157 7760ft 8kts
27-Feb-19 14:34 39.218101 -106.865218 160 7787ft 11kts
27-Feb-19 14:35 39.215112 -106.863796 158 7814ft 14kts
27-Feb-19 14:36 39.212264 -106.862451 257 7816ft 0kts
27-Feb-19 14:37 39.212264 -106.862452 258 7816ft 0kts
27-Feb-19 14:38 39.212231 -106.862477 193 7816ft 0kts
27-Feb-19 14:39 39.213643 -106.864316 341 7819ft 47kts
27-Feb-19 14:40 39.231985 -106.872375 331 8318ft 77kts
27-Feb-19 14:41 39.257596 -106.872962 351 8911ft 98kts
27-Feb-19 14:42 39.277050 -106.886508 278 9570ft 85kts
27-Feb-19 14:43 39.281286 -106.921591 277 10259ft 106kts
27-Feb-19 14:44 39.287387 -106.959933 275 10907ft 117kts
27-Feb-19 14:45 39.294374 -107.001901 273 11561ft 116kts
27-Feb-19 14:46 39.300708 -107.038005 268 12493ft 96kts
27-Feb-19 14:47 39.319303 -107.068039 297 13218ft 111kts
27-Feb-19 14:48 39.341736 -107.097393 299 13817ft 118kts
27-Feb-19 14:49 39.365186 -107.127580 299 14411ft 119kts
27-Feb-19 14:50 39.384738 -107.158913 262 14998ft 98kts
27-Feb-19 14:51 39.381751 -107.191259 249 15573ft 89kts
27-Feb-19 14:52 39.376161 -107.222312 248 15995ft 97kts
27-Feb-19 14:53 39.368915 -107.259810 249 15992ft 118kts
27-Feb-19 14:54 39.360579 -107.302976 249 15989ft 125kts
27-Feb-19 14:55 39.352003 -107.347056 249 15990ft 125kts
27-Feb-19 14:56 39.343482 -107.390605 249 15991ft 124kts
27-Feb-19 14:57 39.335556 -107.431271 248 15994ft 111kts
27-Feb-19 14:58 39.327628 -107.471345 249 15996ft 119kts
27-Feb-19 14:59 39.319352 -107.513523 250 15995ft 122kts
27-Feb-19 15:00 39.311011 -107.555804 249 15996ft 126kts
27-Feb-19 15:01 39.302477 -107.599028 249 15995ft 128kts
27-Feb-19 15:02 39.323287 -107.635016 325 15995ft 163kts
27-Feb-19 15:03 39.365514 -107.654398 329 16000ft 164kts
27-Feb-19 15:04 39.408967 -107.672014 330 16001ft 166kts
27-Feb-19 15:05 39.452455 -107.689333 330 16001ft 166kts
27-Feb-19 15:06 39.496503 -107.706850 330 16001ft 166kts
27-Feb-19 15:07 39.540570 -107.724114 331 16001ft 167kts
27-Feb-19 15:08 39.584838 -107.740879 331 16002ft 167kts
27-Feb-19 15:09 39.629161 -107.757663 331 16002ft 167kts
27-Feb-19 15:10 39.673380 -107.774427 331 16002ft 167kts
27-Feb-19 15:11 39.717736 -107.791268 331 15998ft 167kts
27-Feb-19 15:12 39.761570 -107.807933 331 15994ft 167kts
27-Feb-19 15:13 39.805809 -107.824775 331 15970ft 168kts
27-Feb-19 15:14 39.850047 -107.841634 331 15966ft 168kts
27-Feb-19 15:15 39.894692 -107.858678 331 15966ft 167kts
27-Feb-19 15:16 39.938976 -107.875605 331 15966ft 167kts
27-Feb-19 15:17 39.983490 -107.892645 331 15976ft 167kts
27-Feb-19 15:18 40.027761 -107.909613 331 15976ft 167kts
27-Feb-19 15:19 40.063215 -107.936357 274 15979ft 132kts
27-Feb-19 15:20 40.069008 -107.982420 266 15976ft 129kts
27-Feb-19 15:21 40.072048 -108.028948 264 15975ft 128kts
27-Feb-19 15:22 40.074328 -108.074106 264 15975ft 128kts
27-Feb-19 15:23 40.076472 -108.120348 264 15975ft 128kts
27-Feb-19 15:24 40.078501 -108.165410 264 15975ft 128kts
27-Feb-19 15:25 40.080578 -108.212159 264 15975ft 128kts
27-Feb-19 15:26 40.082619 -108.258628 264 15974ft 128kts
27-Feb-19 15:27 40.084635 -108.304950 264 15974ft 128kts
27-Feb-19 15:28 40.086638 -108.351401 264 15974ft 128kts
27-Feb-19 15:29 40.088611 -108.397667 264 15974ft 127kts
27-Feb-19 15:30 40.090563 -108.443816 264 15973ft 127kts
27-Feb-19 15:31 40.092505 -108.490045 264 15974ft 127kts
27-Feb-19 15:32 40.094427 -108.536429 264 15976ft 127kts
27-Feb-19 15:33 40.096330 -108.582702 264 15979ft 127kts
27-Feb-19 15:34 40.098211 -108.628966 264 15983ft 127kts
27-Feb-19 15:35 40.100004 -108.673654 263 15991ft 128kts
27-Feb-19 15:36 40.101858 -108.719756 263 15988ft 127kts
27-Feb-19 15:37 40.103693 -108.766419 263 15963ft 128kts
27-Feb-19 15:38 40.105507 -108.812477 263 15965ft 127kts
27-Feb-19 15:39 40.107286 -108.858481 263 15966ft 127kts
27-Feb-19 15:40 40.109063 -108.904817 263 15968ft 127kts
27-Feb-19 15:41 40.110824 -108.951270 263 15970ft 129kts
27-Feb-19 15:42 40.112573 -108.998764 264 15970ft 131kts
27-Feb-19 15:43 40.114343 -109.046646 265 15970ft 131kts
27-Feb-19 15:44 40.116100 -109.094632 266 15970ft 131kts
27-Feb-19 15:45 40.117833 -109.142299 266 15970ft 131kts
27-Feb-19 15:46 40.119545 -109.190107 267 15970ft 131kts
27-Feb-19 15:47 40.121270 -109.237845 267 15969ft 131kts
27-Feb-19 15:48 40.122969 -109.285741 267 15969ft 131kts
27-Feb-19 15:49 40.124624 -109.333338 267 15969ft 130kts
27-Feb-19 15:50 40.126250 -109.380828 267 15969ft 130kts
27-Feb-19 15:51 40.127862 -109.428505 267 15968ft 130kts
27-Feb-19 15:52 40.129437 -109.475693 267 15968ft 130kts
27-Feb-19 15:53 40.130968 -109.522103 267 15968ft 130kts
27-Feb-19 15:54 40.132520 -109.569692 267 15967ft 130kts
27-Feb-19 15:55 40.134050 -109.617210 267 15967ft 130kts
27-Feb-19 15:57 40.135542 -109.664593 267 15973ft 130kts
27-Feb-19 15:58 40.137042 -109.712269 267 15973ft 131kts
27-Feb-19 15:59 40.138538 -109.760304 267 15972ft 132kts
27-Feb-19 16:00 40.139999 -109.808337 267 15972ft 132kts
27-Feb-19 16:01 40.141449 -109.856471 267 15972ft 131kts
27-Feb-19 16:02 40.142877 -109.904498 267 15971ft 131kts
27-Feb-19 16:03 40.144276 -109.952316 267 15971ft 131kts
27-Feb-19 16:04 40.145654 -110.000065 267 15971ft 131kts
27-Feb-19 16:05 40.147025 -110.048216 267 15971ft 131kts
27-Feb-19 16:06 40.148370 -110.096047 267 15971ft 131kts
27-Feb-19 16:07 40.150634 -110.143650 270 15971ft 132kts
27-Feb-19 16:08 40.154199 -110.191191 270 15972ft 132kts
27-Feb-19 16:09 40.157821 -110.238848 270 15975ft 131kts
27-Feb-19 16:10 40.161424 -110.286210 270 15978ft 131kts
27-Feb-19 16:11 40.164868 -110.331712 270 15981ft 131kts
27-Feb-19 16:12 40.168451 -110.379325 270 15985ft 130kts
27-Feb-19 16:13 40.171960 -110.426213 270 15987ft 130kts
27-Feb-19 16:14 40.175284 -110.471218 272 15991ft 129kts
27-Feb-19 16:15 40.178587 -110.517195 274 15986ft 126kts
27-Feb-19 16:15 40.180946 -110.548043 274 15986ft 125kts
27-Feb-19 16:17 40.185294 -110.606714 274 15986ft 124kts
27-Feb-19 16:18 40.188582 -110.651736 273 15987ft 124kts
27-Feb-19 16:18 40.191325 -110.689651 274 15993ft 126kts
27-Feb-19 16:19 40.194634 -110.735396 274 15992ft 126kts
27-Feb-19 16:21 40.198459 -110.788667 274 15992ft 126kts
27-Feb-19 16:21 40.201167 -110.826633 274 15992ft 126kts
27-Feb-19 16:22 40.204409 -110.872318 274 15991ft 126kts
27-Feb-19 16:23 40.207714 -110.918574 273 15915ft 131kts
27-Feb-19 16:24 40.211431 -110.971551 272 15158ft 157kts
27-Feb-19 16:25 40.215515 -111.030164 272 14363ft 166kts
27-Feb-19 16:26 40.219635 -111.089599 271 13963ft 156kts
27-Feb-19 16:27 40.223368 -111.144184 271 13961ft 147kts
27-Feb-19 16:28 40.226930 -111.196830 271 13961ft 145kts
27-Feb-19 16:29 40.230472 -111.249240 271 13961ft 144kts
27-Feb-19 16:30 40.233978 -111.301415 271 13961ft 144kts
27-Feb-19 16:31 40.237457 -111.353498 271 13961ft 144kts
27-Feb-19 16:32 40.240920 -111.405838 271 13961ft 145kts
27-Feb-19 16:33 40.244375 -111.458189 271 13960ft 145kts
27-Feb-19 16:34 40.247626 -111.507820 271 13960ft 145kts
27-Feb-19 16:35 40.251107 -111.561413 271 13960ft 145kts
27-Feb-19 16:36 40.254472 -111.613555 271 13960ft 144kts
27-Feb-19 16:37 40.257820 -111.665893 270 13964ft 145kts
27-Feb-19 16:38 40.261172 -111.718541 270 13964ft 145kts
27-Feb-19 16:39 40.264508 -111.771316 270 13963ft 146kts
27-Feb-19 16:40 40.267805 -111.823895 270 13963ft 146kts
27-Feb-19 16:41 40.271076 -111.876428 270 13963ft 145kts
27-Feb-19 16:42 40.304319 -111.900697 351 13948ft 173kts
27-Feb-19 16:43 40.353473 -111.903043 351 13755ft 179kts
27-Feb-19 16:44 40.403574 -111.905725 351 13557ft 181kts
27-Feb-19 16:45 40.453066 -111.908600 351 13362ft 181kts
27-Feb-19 16:46 40.499544 -111.911465 351 13180ft 182kts
27-Feb-19 16:47 40.553809 -111.915333 351 12504ft 194kts
27-Feb-19 16:48 40.604952 -111.919990 351 11492ft 179kts
27-Feb-19 16:49 40.653257 -111.924654 356 10481ft 162kts
27-Feb-19 16:50 40.692191 -111.927758 356 9552ft 142kts
27-Feb-19 16:51 40.731533 -111.930134 354 8533ft 140kts
27-Feb-19 16:52 40.769914 -111.933738 358 7503ft 142kts
27-Feb-19 16:53 40.805071 -111.934895 358 6575ft 100kts
27-Feb-19 16:54 40.822114 -111.949306 266 5394ft 81kts
27-Feb-19 16:55 40.811292 -111.962075 182 4576ft 65kts
27-Feb-19 16:56 40.794364 -111.962080 180 4231ft 51kts
27-Feb-19 16:57 40.787133 -111.961918 162 4231ft 15kts
27-Feb-19 16:58 40.783519 -111.960004 180 4231ft 13kts
27-Feb-19 16:59 40.778928 -111.960030 151 4231ft 12kts
27-Feb-19 17:00 40.777695 -111.959283 269 4231ft 0kts
27-Feb-19 17:01 40.777695 -111.959283 269 4231ft 0kts
27-Feb-19 17:02 40.777695 -111.959283 269 4231ft 0kts

Navigation Log

Ident Type
Flight plan parsing failed, navigation log unavailable